createdAt,value
2022-07-28T00:01:46.447Z,2.35
2022-07-28T00:04:14.430Z,2.55
2022-07-28T00:06:42.415Z,2.65
2022-07-28T00:09:09.968Z,2.70
2022-07-28T00:11:38.195Z,3.65
2022-07-28T00:14:22.421Z,2.70
2022-07-28T00:16:51.561Z,3.10
2022-07-28T00:19:20.162Z,2.80
2022-07-28T00:21:47.823Z,3.38
2022-07-28T00:24:15.692Z,2.80
2022-07-28T00:26:44.692Z,3.22
2022-07-28T00:29:14.268Z,2.80
2022-07-28T00:31:41.966Z,2.50
2022-07-28T00:34:12.138Z,2.60
2022-07-28T00:36:40.047Z,3.25
2022-07-28T00:39:08.777Z,2.35
2022-07-28T00:41:36.507Z,2.65
2022-07-28T00:44:06.532Z,2.28
2022-07-28T00:46:34.180Z,2.13
2022-07-28T00:49:01.881Z,2.55
2022-07-28T00:51:31.013Z,2.80
2022-07-28T00:53:58.986Z,2.45
2022-07-28T00:56:26.642Z,2.55
2022-07-28T00:58:54.237Z,2.30
2022-07-28T01:01:22.311Z,2.30
2022-07-28T01:03:51.520Z,2.47
2022-07-28T01:06:24.245Z,2.65
2022-07-28T01:09:01.105Z,2.60
2022-07-28T01:11:31.832Z,2.10
2022-07-28T01:14:03.848Z,2.60
2022-07-28T01:16:31.502Z,2.50
2022-07-28T01:19:01.907Z,3.20
2022-07-28T01:21:34.498Z,2.50
2022-07-28T01:24:10.897Z,2.95
2022-07-28T01:26:53.419Z,2.85
2022-07-28T01:29:28.531Z,3.10
2022-07-28T01:32:00.712Z,2.78
2022-07-28T01:34:30.647Z,2.67
2022-07-28T01:36:59.365Z,2.90
2022-07-28T01:39:30.473Z,2.60
2022-07-28T01:41:59.122Z,2.42
2022-07-28T01:44:27.655Z,2.83
2022-07-28T01:46:55.845Z,2.85
2022-07-28T01:49:25.854Z,2.78
2022-07-28T01:51:54.209Z,2.85
2022-07-28T01:54:24.689Z,2.88
2022-07-28T01:56:53.987Z,2.90
2022-07-28T01:59:23.396Z,2.83
2022-07-28T02:01:51.547Z,2.95
2022-07-28T02:04:19.911Z,3.30
2022-07-28T02:06:49.716Z,3.20
2022-07-28T02:09:18.562Z,2.95
2022-07-28T02:11:47.341Z,3.05
2022-07-28T02:14:16.840Z,3.00
2022-07-28T02:16:48.346Z,3.00
2022-07-28T02:19:17.428Z,3.00
2022-07-28T02:21:47.821Z,2.95
2022-07-28T02:24:18.057Z,3.00
2022-07-28T02:26:48.016Z,2.78
2022-07-28T02:29:40.565Z,2.97
2022-07-28T02:32:23.916Z,2.80
2022-07-28T02:34:56.447Z,3.10
2022-07-28T02:37:24.504Z,3.20
2022-07-28T02:40:00.220Z,3.00
2022-07-28T02:42:29.950Z,3.47
2022-07-28T02:45:05.404Z,3.30
2022-07-28T02:47:36.259Z,3.40
2022-07-28T02:50:05.153Z,3.05
2022-07-28T02:52:34.504Z,3.45
2022-07-28T02:55:03.799Z,3.00
2022-07-28T02:57:33.179Z,3.97
2022-07-28T03:00:00.784Z,2.83
2022-07-28T03:02:30.844Z,3.15
2022-07-28T03:05:01.662Z,9.65
2022-07-28T03:07:29.328Z,5.85
2022-07-28T03:09:57.197Z,6.07
2022-07-28T03:12:26.130Z,4.18
2022-07-28T03:14:53.893Z,3.80
2022-07-28T03:17:21.543Z,4.20
2022-07-28T03:19:49.131Z,4.22
2022-07-28T03:22:16.846Z,3.40
2022-07-28T03:24:46.169Z,3.70
2022-07-28T03:27:17.982Z,3.13
2022-07-28T03:29:50.711Z,3.63
2022-07-28T03:32:19.468Z,3.55
2022-07-28T03:34:47.286Z,3.53
2022-07-28T03:37:17.518Z,3.38
2022-07-28T03:39:48.888Z,3.40
2022-07-28T03:42:18.261Z,4.60
2022-07-28T03:44:48.508Z,3.20
2022-07-28T03:47:16.671Z,3.50
2022-07-28T03:49:46.866Z,3.35
2022-07-28T03:52:14.516Z,3.70
2022-07-28T03:54:42.121Z,3.45
2022-07-28T03:57:09.848Z,3.97
2022-07-28T03:59:37.386Z,4.65
2022-07-28T04:02:07.162Z,3.47
2022-07-28T04:04:34.805Z,3.88
2022-07-28T04:07:02.409Z,3.58
2022-07-28T04:09:29.975Z,3.25
2022-07-28T04:11:57.521Z,3.65
2022-07-28T04:14:25.448Z,3.78
2022-07-28T04:16:53.454Z,3.67
2022-07-28T04:19:22.418Z,3.90
2022-07-28T04:21:49.971Z,3.65
2022-07-28T04:24:17.921Z,3.53
2022-07-28T04:26:45.658Z,3.63
2022-07-28T04:29:13.236Z,3.45
2022-07-28T04:31:40.846Z,3.80
2022-07-28T04:34:08.478Z,3.83
2022-07-28T04:36:42.090Z,4.00
2022-07-28T04:39:12.133Z,4.10
2022-07-28T04:41:39.756Z,3.83
2022-07-28T04:44:07.437Z,3.78
2022-07-28T04:46:35.993Z,3.83
2022-07-28T04:49:04.242Z,4.43
2022-07-28T04:51:31.958Z,3.90
2022-07-28T04:54:01.545Z,3.90
2022-07-28T04:56:29.120Z,3.80
2022-07-28T04:58:57.348Z,4.30
2022-07-28T05:01:25.009Z,4.57
2022-07-28T05:03:53.403Z,4.85
2022-07-28T05:06:21.442Z,4.07
2022-07-28T05:08:50.080Z,4.18
2022-07-28T05:11:18.976Z,3.80
2022-07-28T05:13:46.622Z,4.00
2022-07-28T05:16:14.295Z,4.32
2022-07-28T05:18:41.991Z,3.85
2022-07-28T05:21:09.556Z,3.88
2022-07-28T05:23:37.191Z,4.15
2022-07-28T05:26:07.178Z,3.80
2022-07-28T05:28:36.128Z,4.18
2022-07-28T05:31:03.932Z,3.83
2022-07-28T05:33:31.910Z,3.88
2022-07-28T05:35:59.941Z,4.18
2022-07-28T05:38:27.730Z,3.90
2022-07-28T05:40:55.470Z,4.32
2022-07-28T05:43:23.810Z,4.10
2022-07-28T05:45:52.949Z,3.90
2022-07-28T05:48:21.128Z,4.10
2022-07-28T05:50:48.798Z,3.85
2022-07-28T05:53:16.776Z,4.22
2022-07-28T05:56:00.296Z,4.20
2022-07-28T05:58:29.519Z,3.90
2022-07-28T06:01:00.572Z,3.50
2022-07-28T06:03:28.482Z,3.70
2022-07-28T06:05:59.409Z,3.67
2022-07-28T06:08:43.086Z,3.80
2022-07-28T06:11:17.853Z,4.22
2022-07-28T06:13:49.536Z,3.60
2022-07-28T06:16:19.725Z,3.50
2022-07-28T06:18:47.517Z,3.63
2022-07-28T06:21:15.121Z,3.70
2022-07-28T06:23:42.696Z,3.50
2022-07-28T06:26:10.347Z,3.80
2022-07-28T06:28:38.961Z,3.80
2022-07-28T06:31:06.658Z,3.47
2022-07-28T06:33:36.484Z,3.53
2022-07-28T06:36:04.189Z,3.45
2022-07-28T06:38:32.976Z,3.75
2022-07-28T06:41:00.862Z,3.90
2022-07-28T06:43:28.410Z,4.13
2022-07-28T06:45:56.068Z,3.83
2022-07-28T06:48:27.209Z,4.15
2022-07-28T06:50:59.884Z,3.88
2022-07-28T06:53:28.040Z,3.90
2022-07-28T06:56:01.517Z,4.25
2022-07-28T06:58:29.290Z,4.03
2022-07-28T07:00:56.983Z,4.00
2022-07-28T07:03:24.709Z,4.53
2022-07-28T07:05:53.032Z,4.40
2022-07-28T07:08:22.120Z,4.68
2022-07-28T07:10:49.822Z,4.80
2022-07-28T07:13:17.367Z,4.30
2022-07-28T07:15:45.046Z,4.45
2022-07-28T07:18:12.756Z,4.18
2022-07-28T07:20:40.371Z,4.50
2022-07-28T07:23:07.975Z,4.50
2022-07-28T07:25:37.066Z,4.38
2022-07-28T07:28:04.895Z,4.93
2022-07-28T07:30:32.550Z,4.65
2022-07-28T07:33:00.155Z,5.00
2022-07-28T07:35:27.791Z,4.55
2022-07-28T07:37:56.619Z,5.07
2022-07-28T07:40:24.436Z,4.60
2022-07-28T07:42:53.540Z,4.60
2022-07-28T07:45:21.213Z,4.75
2022-07-28T07:47:48.983Z,4.78
2022-07-28T07:50:16.645Z,4.60
2022-07-28T07:52:44.213Z,4.90
2022-07-28T07:55:11.950Z,4.68
2022-07-28T07:57:39.499Z,4.38
2022-07-28T08:00:28.881Z,5.03
2022-07-28T08:02:57.258Z,4.88
2022-07-28T08:05:35.038Z,4.40
2022-07-28T08:08:04.833Z,5.70
2022-07-28T08:10:32.538Z,4.60
2022-07-28T08:13:00.151Z,4.80
2022-07-28T08:15:29.104Z,4.70
2022-07-28T08:17:56.836Z,4.47
2022-07-28T08:20:24.646Z,4.70
2022-07-28T08:22:53.621Z,4.55
2022-07-28T08:25:22.210Z,4.90
2022-07-28T08:27:49.929Z,5.07
2022-07-28T08:30:22.920Z,4.60
2022-07-28T08:32:56.422Z,4.57
2022-07-28T08:35:39.097Z,5.00
2022-07-28T08:38:07.230Z,4.82
2022-07-28T08:40:36.165Z,4.60
2022-07-28T08:43:06.183Z,4.70
2022-07-28T08:45:37.080Z,4.85
2022-07-28T08:48:09.183Z,4.80
2022-07-28T08:50:38.741Z,4.57
2022-07-28T08:53:08.018Z,4.47
2022-07-28T08:55:36.923Z,4.57
2022-07-28T08:58:05.223Z,4.68
2022-07-28T09:00:33.338Z,4.78
2022-07-28T09:03:01.170Z,4.30
2022-07-28T09:05:30.586Z,4.30
2022-07-28T09:07:59.495Z,4.32
2022-07-28T09:10:28.134Z,4.47
2022-07-28T09:12:56.016Z,4.40
2022-07-28T09:15:24.179Z,4.57
2022-07-28T09:17:51.783Z,4.15
2022-07-28T09:20:19.681Z,4.60
2022-07-28T09:22:58.774Z,4.30
2022-07-28T09:25:28.947Z,4.63
2022-07-28T09:27:56.959Z,4.38
2022-07-28T09:30:31.560Z,4.20
2022-07-28T09:33:43.015Z,4.57
2022-07-28T09:36:03.827Z,4.63
2022-07-28T09:38:43.666Z,4.22
2022-07-28T09:41:12.367Z,4.30
2022-07-28T09:43:49.838Z,4.68
2022-07-28T09:46:22.271Z,4.35
2022-07-28T09:48:58.108Z,4.88
2022-07-28T09:51:28.555Z,4.63
2022-07-28T09:54:07.638Z,4.43
2022-07-28T09:56:35.721Z,4.47
2022-07-28T09:59:03.937Z,4.93
2022-07-28T10:01:37.167Z,4.35
2022-07-28T10:04:05.261Z,4.63
2022-07-28T10:06:34.257Z,5.10
2022-07-28T10:09:05.534Z,4.43
2022-07-28T10:11:37.717Z,4.53
2022-07-28T10:14:08.811Z,4.88
2022-07-28T10:16:37.197Z,4.65
2022-07-28T10:19:07.563Z,4.78
2022-07-28T10:21:39.461Z,4.75
2022-07-28T10:24:09.981Z,4.50
2022-07-28T10:26:39.702Z,4.72
2022-07-28T10:29:08.795Z,4.28
2022-07-28T10:31:38.791Z,4.47
2022-07-28T10:34:11.874Z,4.35
2022-07-28T10:36:44.144Z,4.20
2022-07-28T10:39:15.582Z,4.55
2022-07-28T10:41:43.660Z,4.60
2022-07-28T10:44:14.784Z,4.72
2022-07-28T10:46:43.543Z,4.35
2022-07-28T10:49:12.064Z,4.03
2022-07-28T10:52:00.161Z,4.20
2022-07-28T10:54:33.162Z,4.00
2022-07-28T10:57:04.926Z,4.22
2022-07-28T10:59:58.125Z,4.68
2022-07-28T11:02:45.323Z,4.55
2022-07-28T11:05:34.112Z,4.18
2022-07-28T11:08:02.901Z,4.88
2022-07-28T11:10:44.148Z,3.95
2022-07-28T11:13:23.936Z,4.90
2022-07-28T11:15:57.057Z,8.20
2022-07-28T11:18:25.986Z,4.72
2022-07-28T11:21:09.091Z,4.60
2022-07-28T11:23:40.813Z,4.30
2022-07-28T11:26:36.263Z,4.13
2022-07-28T11:29:17.815Z,4.20
2022-07-28T11:32:03.798Z,4.00
2022-07-28T11:34:46.355Z,4.07
2022-07-28T11:37:15.395Z,3.85
2022-07-28T11:39:45.278Z,3.67
2022-07-28T11:42:26.569Z,4.15
2022-07-28T11:44:55.969Z,3.50
2022-07-28T11:47:24.274Z,3.80
2022-07-28T11:50:11.969Z,3.80
2022-07-28T11:52:40.565Z,3.38
2022-07-28T11:55:08.432Z,3.15
2022-07-28T11:57:40.188Z,3.38
2022-07-28T12:00:10.796Z,4.18
2022-07-28T12:02:41.511Z,3.45
2022-07-28T12:05:13.755Z,3.55
2022-07-28T12:07:43.264Z,3.20
2022-07-28T12:10:51.964Z,3.42
2022-07-28T12:13:11.569Z,3.20
2022-07-28T12:15:40.619Z,3.45
2022-07-28T12:18:11.508Z,3.22
2022-07-28T12:20:48.755Z,3.20
2022-07-28T12:23:16.698Z,3.20
2022-07-28T12:25:44.929Z,3.53
2022-07-28T12:28:19.440Z,3.60
2022-07-28T12:30:49.401Z,3.85
2022-07-28T12:33:19.219Z,3.50
2022-07-28T12:35:47.251Z,3.38
2022-07-28T12:38:15.594Z,3.72
2022-07-28T12:40:47.137Z,3.20
2022-07-28T12:43:20.184Z,3.80
2022-07-28T12:45:49.585Z,3.92
2022-07-28T12:48:18.767Z,3.78
2022-07-28T12:50:46.537Z,3.22
2022-07-28T12:53:15.177Z,3.60
2022-07-28T12:55:44.072Z,3.90
2022-07-28T12:58:22.369Z,3.47
2022-07-28T13:00:52.109Z,3.47
2022-07-28T13:03:24.255Z,3.30
2022-07-28T13:06:04.545Z,3.50
2022-07-28T13:08:44.740Z,3.33
2022-07-28T13:11:41.934Z,3.78
2022-07-28T13:14:01.580Z,3.40
2022-07-28T13:16:30.584Z,3.70
2022-07-28T13:19:02.830Z,3.25
2022-07-28T13:21:41.234Z,3.40
2022-07-28T13:24:26.573Z,3.78
2022-07-28T13:26:54.208Z,3.63
2022-07-28T13:29:22.434Z,3.63
2022-07-28T13:31:52.177Z,3.60
2022-07-28T13:34:19.921Z,3.75
2022-07-28T13:36:47.620Z,3.60
2022-07-28T13:39:15.224Z,3.28
2022-07-28T13:41:57.415Z,3.40
2022-07-28T13:44:26.427Z,3.20
2022-07-28T13:46:55.635Z,3.17
2022-07-28T13:49:24.174Z,3.60
2022-07-28T13:51:52.238Z,3.15
2022-07-28T13:54:20.519Z,3.50
2022-07-28T13:56:48.481Z,3.20
2022-07-28T13:59:22.175Z,3.85
2022-07-28T14:01:50.316Z,3.80
2022-07-28T14:04:21.435Z,3.70
2022-07-28T14:06:49.580Z,3.80
2022-07-28T14:09:18.214Z,3.75
2022-07-28T14:11:49.932Z,3.60
2022-07-28T14:14:23.853Z,3.72
2022-07-28T14:16:51.866Z,3.33
2022-07-28T14:19:23.415Z,3.60
2022-07-28T14:22:12.177Z,3.42
2022-07-28T14:24:41.097Z,3.47
2022-07-28T14:27:08.679Z,3.38
2022-07-28T14:29:38.164Z,3.85
2022-07-28T14:32:06.112Z,3.85
2022-07-28T14:34:35.134Z,3.40
2022-07-28T14:37:03.327Z,3.50
2022-07-28T14:39:33.440Z,3.28
2022-07-28T14:42:01.014Z,4.10
2022-07-28T14:44:28.586Z,3.10
2022-07-28T14:46:56.314Z,3.58
2022-07-28T14:49:24.033Z,3.35
2022-07-28T14:51:53.037Z,3.67
2022-07-28T14:54:20.664Z,3.72
2022-07-28T14:56:48.214Z,3.15
2022-07-28T14:59:15.954Z,3.70
2022-07-28T15:01:43.627Z,3.30
2022-07-28T15:04:13.870Z,3.50
2022-07-28T15:06:41.918Z,3.70
2022-07-28T15:09:11.136Z,3.70
2022-07-28T15:11:39.807Z,3.00
2022-07-28T15:14:07.389Z,3.40
2022-07-28T15:16:41.231Z,3.17
2022-07-28T15:19:09.472Z,3.58
2022-07-28T15:21:39.420Z,3.50
2022-07-28T15:24:07.571Z,3.20
2022-07-28T15:26:36.523Z,3.00
2022-07-28T15:29:04.238Z,2.95
2022-07-28T15:31:32.156Z,3.20
2022-07-28T15:34:00.032Z,3.25
2022-07-28T15:36:30.180Z,3.05
2022-07-28T15:38:57.809Z,3.17
2022-07-28T15:41:25.367Z,2.83
2022-07-28T15:43:54.318Z,2.95
2022-07-28T15:46:21.940Z,3.35
2022-07-28T15:48:49.913Z,2.78
2022-07-28T15:51:19.362Z,2.92
2022-07-28T15:53:56.350Z,2.95
2022-07-28T15:56:26.219Z,2.90
2022-07-28T15:58:55.640Z,3.17
2022-07-28T16:01:23.557Z,3.20
2022-07-28T16:03:51.228Z,3.13
2022-07-28T16:06:18.824Z,2.97
2022-07-28T16:08:46.424Z,3.28
2022-07-28T16:11:14.690Z,3.05
2022-07-28T16:13:43.385Z,3.33
2022-07-28T16:16:14.269Z,3.30
2022-07-28T16:18:43.444Z,3.53
2022-07-28T16:21:12.075Z,3.78
2022-07-28T16:23:39.891Z,3.30
2022-07-28T16:26:09.570Z,3.22
2022-07-28T16:28:37.542Z,3.45
2022-07-28T16:31:05.767Z,3.22
2022-07-28T16:33:35.585Z,3.28
2022-07-28T16:36:03.460Z,3.08
2022-07-28T16:38:32.550Z,3.03
2022-07-28T16:41:00.181Z,3.22
2022-07-28T16:43:31.604Z,3.13
2022-07-28T16:45:59.803Z,2.90
2022-07-28T16:48:27.523Z,3.15
2022-07-28T16:50:56.872Z,3.00
2022-07-28T16:53:24.498Z,2.78
2022-07-28T16:55:52.112Z,3.30
2022-07-28T16:58:20.117Z,3.00
2022-07-28T17:00:47.692Z,3.00
2022-07-28T17:03:16.309Z,2.78
2022-07-28T17:05:44.437Z,3.53
2022-07-28T17:08:13.689Z,3.30
2022-07-28T17:10:41.471Z,3.42
2022-07-28T17:13:11.947Z,3.40
2022-07-28T17:15:40.885Z,3.08
2022-07-28T17:18:09.052Z,3.25
2022-07-28T17:20:39.915Z,3.25
2022-07-28T17:23:08.201Z,3.30
2022-07-28T17:28:25.223Z,3.00
2022-07-28T17:30:53.332Z,3.25
2022-07-28T17:33:25.142Z,3.22
2022-07-28T17:35:55.087Z,3.63
2022-07-28T17:38:29.542Z,3.08
2022-07-28T17:41:03.969Z,3.20
2022-07-28T17:43:32.777Z,3.50
2022-07-28T17:46:00.958Z,3.08
2022-07-28T17:48:28.876Z,3.35
2022-07-28T17:50:56.552Z,2.92
2022-07-28T17:53:24.679Z,3.10
2022-07-28T17:56:00.899Z,2.92
2022-07-28T17:58:32.359Z,2.83
2022-07-28T18:01:12.022Z,3.42
2022-07-28T18:03:56.776Z,3.45
2022-07-28T18:06:28.587Z,3.38
2022-07-28T18:08:56.283Z,3.20
2022-07-28T18:11:27.783Z,3.33
2022-07-28T18:14:15.694Z,3.60
2022-07-28T18:16:44.956Z,3.22
2022-07-28T18:19:13.644Z,3.13
2022-07-28T18:21:43.682Z,2.88
2022-07-28T18:24:11.329Z,3.25
2022-07-28T18:26:40.295Z,3.13
2022-07-28T18:29:13.786Z,3.10
2022-07-28T18:31:46.439Z,2.90
2022-07-28T18:34:15.443Z,3.35
2022-07-28T18:36:45.836Z,3.13
2022-07-28T18:39:13.486Z,3.33
2022-07-28T18:41:47.289Z,3.40
2022-07-28T18:44:19.989Z,3.70
2022-07-28T18:46:48.318Z,3.40
2022-07-28T18:49:16.208Z,3.60
2022-07-28T18:51:45.019Z,4.20
2022-07-28T18:54:13.891Z,3.85
2022-07-28T18:56:41.671Z,3.63
2022-07-28T18:59:09.222Z,3.40
2022-07-28T19:01:38.222Z,3.50
2022-07-28T19:04:06.296Z,3.40
2022-07-28T19:06:35.882Z,3.78
2022-07-28T19:09:06.322Z,3.55
2022-07-28T19:11:33.967Z,3.47
2022-07-28T19:14:01.793Z,3.90
2022-07-28T19:16:30.257Z,3.63
2022-07-28T19:19:01.630Z,3.85
2022-07-28T19:21:29.346Z,4.45
2022-07-28T19:23:59.959Z,4.18
2022-07-28T19:26:28.175Z,4.20
2022-07-28T19:28:56.891Z,3.72
2022-07-28T19:31:24.680Z,3.42
2022-07-28T19:33:53.003Z,3.72
2022-07-28T19:36:22.354Z,3.63
2022-07-28T19:38:50.174Z,3.47
2022-07-28T19:41:18.137Z,3.28
2022-07-28T19:43:45.842Z,3.60
2022-07-28T19:46:13.542Z,3.53
2022-07-28T19:48:44.449Z,3.75
2022-07-28T19:51:12.033Z,3.42
2022-07-28T19:53:41.117Z,3.72
2022-07-28T19:56:09.372Z,3.20
2022-07-28T19:58:38.024Z,3.30
2022-07-28T20:01:05.946Z,3.50
2022-07-28T20:04:00.783Z,3.35
2022-07-28T20:06:25.050Z,3.17
2022-07-28T20:08:54.489Z,3.40
2022-07-28T20:11:22.040Z,3.72
2022-07-28T20:13:53.553Z,3.78
2022-07-28T20:16:22.430Z,4.00
2022-07-28T20:18:50.354Z,3.53
2022-07-28T20:21:18.931Z,3.88
2022-07-28T20:23:46.633Z,3.85
2022-07-28T20:26:17.206Z,3.92
2022-07-28T20:28:51.109Z,3.80
2022-07-28T20:31:20.335Z,3.95
2022-07-28T20:34:10.353Z,3.90
2022-07-28T20:36:52.415Z,4.57
2022-07-28T20:39:44.319Z,4.72
2022-07-28T20:42:19.954Z,4.53
2022-07-28T20:44:47.677Z,4.95
2022-07-28T20:47:15.231Z,4.78
2022-07-28T20:49:43.677Z,5.32
2022-07-28T20:52:13.016Z,5.25
2022-07-28T20:54:40.843Z,5.50
2022-07-28T20:57:08.335Z,5.38
2022-07-28T20:59:38.763Z,5.90
2022-07-28T21:02:07.060Z,5.75
2022-07-28T21:04:35.616Z,6.32
2022-07-28T21:07:04.173Z,6.28
2022-07-28T21:09:31.859Z,6.32
2022-07-28T21:11:59.454Z,6.35
2022-07-28T21:14:27.002Z,7.00
2022-07-28T21:16:59.273Z,6.63
2022-07-28T21:19:32.472Z,6.82
2022-07-28T21:22:09.627Z,6.72
2022-07-28T21:24:38.877Z,6.78
2022-07-28T21:27:19.567Z,7.70
2022-07-28T21:29:46.380Z,7.18
2022-07-28T21:32:21.287Z,7.63
2022-07-28T21:34:48.828Z,7.13
2022-07-28T21:37:16.364Z,7.00
2022-07-28T21:39:45.521Z,7.70
2022-07-28T21:42:13.015Z,7.40
2022-07-28T21:44:40.819Z,7.03
2022-07-28T21:47:15.770Z,7.10
2022-07-28T21:49:46.442Z,7.20
2022-07-28T21:52:15.464Z,8.25
2022-07-28T21:54:43.899Z,7.82
2022-07-28T21:57:25.014Z,7.40
2022-07-28T21:59:54.878Z,7.10
2022-07-28T22:02:24.145Z,7.63
2022-07-28T22:04:54.261Z,7.95
2022-07-28T22:07:22.121Z,8.18
2022-07-28T22:09:51.501Z,7.90
2022-07-28T22:12:23.423Z,8.02
2022-07-28T22:15:18.034Z,9.13
2022-07-28T22:17:46.327Z,8.10
2022-07-28T22:20:15.361Z,7.63
2022-07-28T22:22:43.003Z,8.20
2022-07-28T22:25:10.831Z,8.25
2022-07-28T22:27:38.385Z,8.50
2022-07-28T22:30:07.176Z,8.57
2022-07-28T22:32:35.818Z,9.60
2022-07-28T22:35:03.467Z,9.35
2022-07-28T22:37:32.255Z,9.50
2022-07-28T22:39:59.773Z,9.20
2022-07-28T22:42:27.312Z,8.50
2022-07-28T22:44:54.884Z,8.82
2022-07-28T22:47:22.427Z,8.55
2022-07-28T22:52:36.192Z,8.32
2022-07-28T22:55:03.641Z,8.10
2022-07-28T22:57:31.326Z,8.32
2022-07-28T23:00:07.580Z,7.95
2022-07-28T23:02:35.278Z,8.05
2022-07-28T23:05:02.839Z,8.10
2022-07-28T23:07:50.813Z,8.40
2022-07-28T23:10:19.261Z,8.82
2022-07-28T23:12:46.770Z,8.20
2022-07-28T23:15:14.223Z,8.63
2022-07-28T23:17:48.431Z,8.05
2022-07-28T23:20:27.551Z,8.18
2022-07-28T23:25:42.920Z,7.30
2022-07-28T23:28:10.611Z,7.78
2022-07-28T23:30:38.328Z,7.88
2022-07-28T23:33:06.149Z,7.55
2022-07-28T23:35:33.672Z,7.30
2022-07-28T23:38:01.303Z,8.43
2022-07-28T23:40:28.747Z,7.97
2022-07-28T23:42:57.665Z,8.48
2022-07-28T23:45:25.417Z,8.25
2022-07-28T23:47:58.556Z,7.57
2022-07-28T23:50:28.224Z,7.95
2022-07-28T23:52:55.992Z,7.50
2022-07-28T23:55:27.308Z,8.13
2022-07-28T23:57:54.782Z,7.93
